Time;durP1;ratioP1;P1;durP2;ratioP2;P2;SDS_P1;SDS_P2;PMS_P1;PMS_P2;Temp;Humidity;BMP_temperature;BMP_pressure;BME280_temperature;BME280_humidity;BME280_pressure;Samples;Min_cycle;Max_cycle;Signal;HPM_P1;HPM_P2
2023/04/04 00:00:44;;;;;;;;;;;3.40;57.20;;;;;;5035907;28;19920;-62
2023/04/04 00:03:11;;;;;;;;;;;3.40;57.10;;;;;;5037419;28;19921;-60
2023/04/04 00:05:38;;;;;;;;;;;3.40;57.30;;;;;;5037787;28;19932;-63
2023/04/04 00:08:06;;;;;;;;;;;3.40;57.30;;;;;;5038566;28;19974;-63
2023/04/04 00:10:33;;;;;;;;;;;3.40;57.00;;;;;;5035800;28;19929;-63
2023/04/04 00:13:00;;;;;;;;;;;3.40;57.70;;;;;;5037226;28;19924;-61
2023/04/04 00:15:26;;;;;;;;;;;3.30;58.60;;;;;;5039990;28;19920;-61
2023/04/04 00:17:53;;;;;;;;;;;3.40;58.80;;;;;;5040771;28;19921;-62
2023/04/04 00:20:20;;;;;;;;;;;3.40;59.00;;;;;;5038997;28;19925;-62
2023/04/04 00:22:47;;;;;;;;;;;3.30;58.60;;;;;;5038208;28;19928;-61
2023/04/04 00:25:15;;;;;;;;;;;3.30;58.70;;;;;;5015774;28;20463;-62
2023/04/04 00:27:42;;;;;;;;;;;3.30;58.90;;;;;;5031580;28;19933;-62
2023/04/04 00:30:11;;;;;;;;;;;3.20;58.60;;;;;;5030483;28;19929;-60
2023/04/04 00:32:37;;;;;;;;;;;3.20;59.40;;;;;;5031709;28;19921;-61
2023/04/04 00:35:04;;;;;;;;;;;3.20;59.20;;;;;;5033203;28;19935;-62
2023/04/04 00:37:32;;;;;;;;;;;3.20;58.40;;;;;;5013842;28;19928;-60
2023/04/04 00:39:58;;;;;;;;;;;3.20;57.60;;;;;;5026259;28;19932;-63
2023/04/04 00:42:27;;;;;;;;;;;3.20;57.60;;;;;;5016268;28;19925;-62
2023/04/04 00:44:54;;;;;;;;;;;3.20;57.90;;;;;;5027633;28;20016;-63
2023/04/04 00:47:22;;;;;;;;;;;3.20;58.10;;;;;;5035941;28;19975;-62
2023/04/04 00:49:48;;;;;;;;;;;3.10;58.30;;;;;;5018578;28;20300;-62
2023/04/04 00:52:15;;;;;;;;;;;3.10;58.20;;;;;;5038486;28;19929;-61
2023/04/04 00:54:42;;;;;;;;;;;3.20;58.80;;;;;;5029897;28;20412;-62
2023/04/04 00:57:09;;;;;;;;;;;3.10;59.50;;;;;;5034804;28;20269;-62
2023/04/04 00:59:37;;;;;;;;;;;3.10;59.70;;;;;;5021593;28;19924;-61
2023/04/04 01:02:05;;;;;;;;;;;3.10;60.00;;;;;;5033316;28;20012;-61
2023/04/04 01:04:32;;;;;;;;;;;3.10;59.80;;;;;;5039023;28;19928;-61
2023/04/04 01:06:59;;;;;;;;;;;3.00;59.60;;;;;;5039291;28;19920;-62
2023/04/04 01:09:26;;;;;;;;;;;3.00;58.90;;;;;;5034326;28;19920;-62
2023/04/04 01:11:54;;;;;;;;;;;3.00;59.00;;;;;;5036361;28;20063;-62
2023/04/04 01:14:21;;;;;;;;;;;3.00;59.10;;;;;;5038655;28;19924;-62
2023/04/04 01:16:50;;;;;;;;;;;3.00;59.10;;;;;;5036418;28;19924;-63
2023/04/04 01:19:20;;;;;;;;;;;2.90;59.20;;;;;;5005925;28;20261;-62
2023/04/04 01:21:48;;;;;;;;;;;2.90;59.60;;;;;;5038362;28;20436;-63
2023/04/04 01:24:16;;;;;;;;;;;2.90;59.90;;;;;;5021107;28;19960;-61
2023/04/04 01:26:53;;;;;;;;;;;2.90;59.50;;;;;;5035245;28;20029;-63
2023/04/04 01:29:20;;;;;;;;;;;2.80;59.80;;;;;;5035039;28;19978;-63
2023/04/04 01:31:54;;;;;;;;;;;2.80;60.20;;;;;;5022210;28;19925;-61
2023/04/04 01:34:25;;;;;;;;;;;2.70;60.70;;;;;;5037828;28;19925;-62
2023/04/04 01:36:55;;;;;;;;;;;2.70;61.30;;;;;;5032854;28;20376;-63
2023/04/04 01:39:25;;;;;;;;;;;2.70;61.70;;;;;;5020919;28;19925;-62
2023/04/04 01:41:54;;;;;;;;;;;2.70;62.00;;;;;;5029743;28;19968;-62
2023/04/04 01:44:21;;;;;;;;;;;2.70;62.30;;;;;;5026697;28;19936;-61
2023/04/04 01:46:52;;;;;;;;;;;2.60;62.50;;;;;;5027567;28;20019;-62
2023/04/04 01:49:19;;;;;;;;;;;2.60;62.70;;;;;;5002068;28;19931;-63
2023/04/04 01:51:46;;;;;;;;;;;2.60;62.90;;;;;;5011922;28;20718;-63
2023/04/04 01:54:13;;;;;;;;;;;2.60;63.00;;;;;;5031064;28;19929;-63
2023/04/04 01:56:40;;;;;;;;;;;2.50;63.40;;;;;;5032326;28;19932;-63
2023/04/04 01:59:08;;;;;;;;;;;2.40;63.90;;;;;;5015803;28;19960;-61
2023/04/04 02:01:35;;;;;;;;;;;2.40;64.40;;;;;;5010238;28;19943;-62
2023/04/04 02:04:02;;;;;;;;;;;2.30;64.60;;;;;;5016254;28;19928;-62
2023/04/04 02:06:29;;;;;;;;;;;2.30;64.60;;;;;;5016222;28;19964;-61
2023/04/04 02:08:56;;;;;;;;;;;2.30;63.90;;;;;;5025515;28;19927;-63
2023/04/04 02:11:24;;;;;;;;;;;2.30;63.90;;;;;;5027185;28;20015;-62
2023/04/04 02:13:51;;;;;;;;;;;2.30;63.70;;;;;;5021828;28;19932;-61
2023/04/04 02:16:20;;;;;;;;;;;2.30;64.10;;;;;;5026421;28;20023;-63
2023/04/04 02:18:47;;;;;;;;;;;2.30;64.30;;;;;;5015951;28;19929;-61
2023/04/04 02:21:14;;;;;;;;;;;2.20;65.10;;;;;;5028905;28;19925;-63
2023/04/04 02:23:41;;;;;;;;;;;2.20;65.80;;;;;;5035943;28;19927;-62
2023/04/04 02:26:07;;;;;;;;;;;2.00;65.90;;;;;;5030815;28;20284;-60
2023/04/04 02:28:34;;;;;;;;;;;2.10;66.10;;;;;;5015621;28;19924;-63
2023/04/04 02:31:02;;;;;;;;;;;2.00;65.80;;;;;;5033553;28;20560;-61
2023/04/04 02:33:30;;;;;;;;;;;2.00;65.70;;;;;;5031283;28;19956;-62
2023/04/04 02:35:59;;;;;;;;;;;2.00;65.80;;;;;;5012669;28;19951;-61
2023/04/04 02:38:26;;;;;;;;;;;2.00;66.00;;;;;;5010103;28;19941;-62
2023/04/04 02:40:53;;;;;;;;;;;2.00;66.20;;;;;;5024831;28;20014;-61
2023/04/04 02:43:20;;;;;;;;;;;1.90;66.40;;;;;;5032354;28;19995;-61
2023/04/04 02:45:49;;;;;;;;;;;2.00;66.30;;;;;;4996900;28;20055;-61
2023/04/04 02:48:27;;;;;;;;;;;2.00;66.60;;;;;;5013886;28;19936;-62
2023/04/04 02:51:00;;;;;;;;;;;1.90;67.00;;;;;;4995305;28;20032;-62
2023/04/04 02:53:27;;;;;;;;;;;1.90;67.10;;;;;;5011875;28;22186;-62
2023/04/04 02:55:58;;;;;;;;;;;1.90;67.30;;;;;;5017232;28;19934;-62
2023/04/04 02:58:25;;;;;;;;;;;1.90;67.20;;;;;;5031835;28;19966;-60
2023/04/04 03:00:55;;;;;;;;;;;1.90;67.10;;;;;;5027969;28;19929;-62
2023/04/04 03:03:25;;;;;;;;;;;1.90;67.30;;;;;;5028287;28;20379;-64
2023/04/04 03:05:51;;;;;;;;;;;1.90;67.40;;;;;;5012019;28;19927;-63
2023/04/04 03:08:20;;;;;;;;;;;1.80;68.00;;;;;;5029045;28;20544;-61
2023/04/04 03:10:47;;;;;;;;;;;1.70;68.20;;;;;;5009226;28;19970;-60
2023/04/04 03:13:14;;;;;;;;;;;1.80;67.90;;;;;;5027055;28;19921;-61
2023/04/04 03:15:40;;;;;;;;;;;1.70;68.10;;;;;;5015855;28;19996;-61
2023/04/04 03:18:08;;;;;;;;;;;1.70;68.30;;;;;;4999073;28;19920;-62
2023/04/04 03:20:35;;;;;;;;;;;1.70;68.30;;;;;;5026962;28;20000;-63
2023/04/04 03:23:02;;;;;;;;;;;1.70;68.30;;;;;;5028948;28;19929;-62
2023/04/04 03:25:30;;;;;;;;;;;1.70;68.30;;;;;;5032235;28;20390;-62
2023/04/04 03:27:57;;;;;;;;;;;1.70;68.30;;;;;;5030363;28;19939;-62
2023/04/04 03:30:26;;;;;;;;;;;1.70;68.30;;;;;;5032594;28;19922;-62
2023/04/04 03:32:52;;;;;;;;;;;1.70;68.40;;;;;;5034171;28;20368;-63
2023/04/04 03:35:19;;;;;;;;;;;1.70;68.50;;;;;;5032012;28;19947;-63
2023/04/04 03:37:46;;;;;;;;;;;1.70;68.70;;;;;;5028260;28;19931;-63
2023/04/04 03:40:13;;;;;;;;;;;1.60;68.90;;;;;;5031688;28;19925;-66
2023/04/04 03:42:41;;;;;;;;;;;1.60;69.10;;;;;;5016591;28;19925;-61
2023/04/04 03:45:11;;;;;;;;;;;1.50;69.40;;;;;;4997789;28;19978;-61
2023/04/04 03:47:39;;;;;;;;;;;1.60;69.50;;;;;;5032918;28;19925;-63
2023/04/04 03:50:06;;;;;;;;;;;1.60;69.20;;;;;;5032538;28;19967;-62
2023/04/04 03:52:37;;;;;;;;;;;1.50;69.40;;;;;;5027665;28;19921;-62
2023/04/04 03:55:04;;;;;;;;;;;1.50;69.40;;;;;;5028347;28;20311;-63
2023/04/04 03:57:31;;;;;;;;;;;1.50;69.80;;;;;;5008196;28;19928;-63
2023/04/04 03:59:59;;;;;;;;;;;1.50;69.90;;;;;;5013839;28;20076;-63
2023/04/04 04:02:26;;;;;;;;;;;1.50;70.00;;;;;;5015929;28;20500;-61
2023/04/04 04:04:53;;;;;;;;;;;1.50;70.00;;;;;;5028631;28;20419;-61
2023/04/04 04:07:20;;;;;;;;;;;1.40;70.30;;;;;;5015777;28;19929;-63
2023/04/04 04:09:47;;;;;;;;;;;1.30;70.60;;;;;;5028546;28;20009;-62
2023/04/04 04:12:14;;;;;;;;;;;1.30;70.80;;;;;;5026390;28;19936;-62
2023/04/04 04:14:41;;;;;;;;;;;1.30;70.90;;;;;;5024509;28;19924;-62
2023/04/04 04:17:10;;;;;;;;;;;1.30;71.30;;;;;;5011748;28;20406;-63
2023/04/04 04:19:37;;;;;;;;;;;1.30;71.40;;;;;;5029383;28;19925;-61
2023/04/04 04:22:03;;;;;;;;;;;1.20;71.40;;;;;;5012723;28;19921;-61
2023/04/04 04:24:30;;;;;;;;;;;1.20;71.60;;;;;;5030991;28;19952;-61
2023/04/04 04:26:58;;;;;;;;;;;1.20;71.80;;;;;;5011793;28;19991;-62
2023/04/04 04:29:25;;;;;;;;;;;1.20;72.20;;;;;;5031327;28;19933;-61
2023/04/04 04:31:52;;;;;;;;;;;1.10;72.20;;;;;;5015629;28;19976;-61
2023/04/04 04:34:21;;;;;;;;;;;1.00;72.50;;;;;;5023105;28;19928;-61
2023/04/04 04:36:49;;;;;;;;;;;1.10;72.50;;;;;;5032851;28;19950;-61
2023/04/04 04:39:21;;;;;;;;;;;1.10;72.50;;;;;;5017885;28;19998;-62
2023/04/04 04:42:05;;;;;;;;;;;1.00;72.50;;;;;;5036594;28;19935;-63
2023/04/04 04:44:33;;;;;;;;;;;1.00;72.70;;;;;;5019664;28;19925;-63
2023/04/04 04:47:00;;;;;;;;;;;1.00;72.70;;;;;;5030165;28;19936;-61
2023/04/04 04:49:29;;;;;;;;;;;1.00;72.50;;;;;;5017403;28;20330;-63
2023/04/04 04:51:57;;;;;;;;;;;1.00;72.20;;;;;;5001705;28;19983;-61
2023/04/04 04:54:23;;;;;;;;;;;1.00;72.00;;;;;;5038478;28;19921;-62
2023/04/04 04:56:54;;;;;;;;;;;1.00;71.80;;;;;;5015314;28;19925;-63
2023/04/04 04:59:21;;;;;;;;;;;0.90;71.90;;;;;;5033455;28;19921;-61
2023/04/04 05:01:48;;;;;;;;;;;0.90;72.20;;;;;;5015429;28;19967;-62
2023/04/04 05:04:16;;;;;;;;;;;0.90;72.40;;;;;;5039862;28;19925;-61
2023/04/04 05:06:57;;;;;;;;;;;0.90;72.50;;;;;;5014618;28;19932;-62
2023/04/04 05:09:24;;;;;;;;;;;1.00;72.40;;;;;;5013172;28;19932;-63
2023/04/04 05:11:51;;;;;;;;;;;0.90;72.40;;;;;;5019669;28;19944;-63
2023/04/04 05:14:21;;;;;;;;;;;0.90;72.60;;;;;;5014952;28;19925;-61
2023/04/04 05:16:53;;;;;;;;;;;0.90;72.60;;;;;;5013587;28;20336;-62
2023/04/04 05:19:21;;;;;;;;;;;0.90;72.60;;;;;;5003890;28;19931;-61
2023/04/04 05:21:53;;;;;;;;;;;1.00;72.70;;;;;;5032644;28;20039;-61
2023/04/04 05:24:32;;;;;;;;;;;0.90;72.80;;;;;;5019377;28;19921;-63
2023/04/04 05:27:00;;;;;;;;;;;1.00;72.70;;;;;;5010650;28;19929;-62
2023/04/04 05:29:32;;;;;;;;;;;1.00;72.70;;;;;;5033559;28;19921;-63
2023/04/04 05:32:00;;;;;;;;;;;1.00;72.60;;;;;;5016857;28;19979;-61
2023/04/04 05:34:28;;;;;;;;;;;0.90;73.10;;;;;;5013034;28;19940;-62
2023/04/04 05:36:56;;;;;;;;;;;1.00;72.90;;;;;;5019203;28;19953;-62
2023/04/04 05:39:23;;;;;;;;;;;0.90;73.00;;;;;;5014515;28;19921;-61
2023/04/04 05:42:01;;;;;;;;;;;0.90;73.10;;;;;;5017173;28;19988;-63
2023/04/04 05:44:30;;;;;;;;;;;0.90;73.10;;;;;;5020009;28;19939;-59
2023/04/04 05:46:57;;;;;;;;;;;1.00;73.10;;;;;;5011164;28;20007;-63
2023/04/04 05:49:24;;;;;;;;;;;1.00;73.10;;;;;;5015032;28;19925;-62
2023/04/04 05:51:57;;;;;;;;;;;1.00;73.30;;;;;;5018343;28;19936;-60
2023/04/04 05:54:26;;;;;;;;;;;0.90;73.70;;;;;;5017220;28;19972;-62
2023/04/04 05:56:53;;;;;;;;;;;1.00;73.70;;;;;;5032626;28;19928;-61
2023/04/04 05:59:37;;;;;;;;;;;1.00;73.20;;;;;;5027728;28;19944;-62
2023/04/04 06:02:07;;;;;;;;;;;1.10;73.20;;;;;;5015141;28;19929;-63
2023/04/04 06:04:35;;;;;;;;;;;1.20;72.90;;;;;;5026610;28;20302;-61
2023/04/04 06:07:05;;;;;;;;;;;1.30;72.60;;;;;;5016636;28;19928;-63
2023/04/04 06:09:32;;;;;;;;;;;1.20;72.80;;;;;;5031561;28;19932;-61
2023/04/04 06:11:59;;;;;;;;;;;1.30;72.70;;;;;;5011154;28;19936;-62
2023/04/04 06:14:26;;;;;;;;;;;1.30;72.40;;;;;;5015997;28;19935;-61
2023/04/04 06:16:55;;;;;;;;;;;1.40;72.30;;;;;;5029785;28;19920;-62
2023/04/04 06:19:21;;;;;;;;;;;1.40;72.30;;;;;;5034265;28;20012;-62
2023/04/04 06:21:48;;;;;;;;;;;1.50;72.20;;;;;;5003172;28;19921;-62
2023/04/04 06:24:15;;;;;;;;;;;1.50;72.20;;;;;;5036363;28;19928;-62
2023/04/04 06:26:43;;;;;;;;;;;1.60;71.80;;;;;;5012057;28;20330;-63
2023/04/04 06:29:11;;;;;;;;;;;1.70;71.30;;;;;;5032923;28;19972;-62
2023/04/04 06:31:39;;;;;;;;;;;1.80;71.00;;;;;;5029873;28;20372;-62
2023/04/04 06:34:11;;;;;;;;;;;1.90;70.70;;;;;;5014704;28;20015;-62
2023/04/04 06:36:50;;;;;;;;;;;2.00;70.40;;;;;;5013234;28;20379;-62
2023/04/04 06:39:18;;;;;;;;;;;2.10;70.00;;;;;;5011769;28;19929;-63
2023/04/04 06:41:47;;;;;;;;;;;2.20;69.60;;;;;;5018104;28;19925;-62
2023/04/04 06:44:14;;;;;;;;;;;2.30;69.20;;;;;;5014506;28;19999;-63
2023/04/04 06:46:41;;;;;;;;;;;2.40;68.90;;;;;;5015712;28;19956;-64
2023/04/04 06:49:08;;;;;;;;;;;2.40;68.50;;;;;;5018184;28;20039;-63
2023/04/04 06:51:36;;;;;;;;;;;2.40;68.40;;;;;;5001858;28;19929;-62
2023/04/04 06:54:03;;;;;;;;;;;2.50;68.60;;;;;;5028074;28;19929;-60
2023/04/04 06:56:30;;;;;;;;;;;2.60;68.60;;;;;;5015017;28;19925;-63
2023/04/04 06:58:56;;;;;;;;;;;2.70;68.30;;;;;;5028859;28;19928;-61
2023/04/04 07:01:23;;;;;;;;;;;2.80;68.20;;;;;;5030922;28;19921;-60
2023/04/04 07:03:52;;;;;;;;;;;2.90;68.00;;;;;;5026595;28;20119;-62
2023/04/04 07:06:20;;;;;;;;;;;3.00;67.60;;;;;;5028828;28;19932;-61
2023/04/04 07:08:48;;;;;;;;;;;3.00;67.30;;;;;;5032071;28;19953;-63
2023/04/04 07:11:15;;;;;;;;;;;3.10;67.50;;;;;;5033869;28;19921;-63
2023/04/04 07:13:42;;;;;;;;;;;3.10;67.10;;;;;;5027438;28;19952;-61
2023/04/04 07:16:10;;;;;;;;;;;3.10;66.70;;;;;;5027728;28;19927;-64
2023/04/04 07:18:37;;;;;;;;;;;3.10;65.20;;;;;;5023261;28;19980;-63
2023/04/04 07:21:04;;;;;;;;;;;3.10;64.60;;;;;;5027288;28;19921;-63
2023/04/04 07:23:31;;;;;;;;;;;3.20;64.80;;;;;;5031225;28;19925;-61
2023/04/04 07:25:59;;;;;;;;;;;3.30;64.80;;;;;;5030148;28;19960;-62
2023/04/04 07:28:26;;;;;;;;;;;3.30;64.20;;;;;;5031052;28;19928;-63
2023/04/04 07:30:53;;;;;;;;;;;3.50;64.60;;;;;;5028860;28;19925;-62
2023/04/04 07:33:20;;;;;;;;;;;3.40;63.80;;;;;;5036229;28;19973;-61
2023/04/04 07:35:47;;;;;;;;;;;3.50;62.40;;;;;;5024609;28;19935;-64
2023/04/04 07:38:14;;;;;;;;;;;3.70;61.80;;;;;;5030596;28;19924;-62
2023/04/04 07:40:40;;;;;;;;;;;3.80;61.70;;;;;;5029109;28;19921;-63
2023/04/04 07:43:09;;;;;;;;;;;3.90;61.00;;;;;;5031144;28;19921;-63
2023/04/04 07:45:36;;;;;;;;;;;4.00;58.70;;;;;;5025221;28;19928;-63
2023/04/04 07:48:02;;;;;;;;;;;4.20;57.70;;;;;;5026836;28;20395;-63
2023/04/04 07:50:29;;;;;;;;;;;4.50;56.30;;;;;;5030439;28;20351;-63
2023/04/04 07:52:57;;;;;;;;;;;4.60;56.10;;;;;;5021944;28;19924;-62
2023/04/04 07:55:24;;;;;;;;;;;4.70;55.80;;;;;;5031552;28;19983;-61
2023/04/04 07:57:51;;;;;;;;;;;4.90;55.50;;;;;;5016711;28;20276;-61
2023/04/04 08:00:21;;;;;;;;;;;5.00;55.10;;;;;;5034666;28;19937;-68
2023/04/04 08:02:51;;;;;;;;;;;5.20;54.70;;;;;;5033712;28;19929;-68
2023/04/04 08:05:18;;;;;;;;;;;5.30;54.20;;;;;;5024542;28;19929;-68
2023/04/04 08:07:44;;;;;;;;;;;5.50;54.00;;;;;;5025433;28;19925;-69
2023/04/04 08:10:11;;;;;;;;;;;5.60;53.70;;;;;;5039133;28;19925;-69
2023/04/04 08:12:38;;;;;;;;;;;5.70;52.20;;;;;;5038521;28;21228;-69
2023/04/04 08:15:05;;;;;;;;;;;5.80;52.40;;;;;;5034551;28;20090;-69
2023/04/04 08:17:33;;;;;;;;;;;6.10;52.10;;;;;;5030058;28;19924;-67
2023/04/04 08:20:00;;;;;;;;;;;6.20;51.40;;;;;;5034071;28;19931;-68
2023/04/04 08:22:27;;;;;;;;;;;6.40;51.30;;;;;;5031833;28;19960;-69
2023/04/04 08:24:54;;;;;;;;;;;6.50;50.80;;;;;;5034427;28;20020;-69
2023/04/04 08:27:21;;;;;;;;;;;6.60;49.70;;;;;;5032844;28;19932;-69
2023/04/04 08:29:48;;;;;;;;;;;6.60;50.00;;;;;;5035710;28;19928;-68
2023/04/04 08:32:14;;;;;;;;;;;6.80;49.50;;;;;;5032718;28;20611;-68
2023/04/04 08:34:43;;;;;;;;;;;7.00;49.60;;;;;;5029517;28;19939;-67
2023/04/04 08:37:09;;;;;;;;;;;6.90;48.10;;;;;;5011702;28;19962;-68
2023/04/04 08:39:36;;;;;;;;;;;6.80;47.90;;;;;;5037550;28;19921;-69
2023/04/04 08:42:04;;;;;;;;;;;6.90;47.50;;;;;;5031964;28;19928;-69
2023/04/04 08:44:32;;;;;;;;;;;7.10;47.90;;;;;;5034237;28;19928;-68
2023/04/04 08:46:59;;;;;;;;;;;7.20;48.30;;;;;;5030047;28;20364;-68
2023/04/04 08:49:26;;;;;;;;;;;7.30;48.10;;;;;;5037337;28;19937;-70
2023/04/04 08:51:56;;;;;;;;;;;7.40;48.20;;;;;;5038250;28;19978;-68
2023/04/04 08:54:24;;;;;;;;;;;7.60;48.40;;;;;;5029424;28;19929;-68
2023/04/04 08:56:51;;;;;;;;;;;7.60;47.90;;;;;;5031344;28;23221;-68
2023/04/04 08:59:18;;;;;;;;;;;7.70;47.20;;;;;;5036054;28;19986;-67
2023/04/04 09:01:45;;;;;;;;;;;7.80;47.60;;;;;;5029119;28;19920;-69
2023/04/04 09:04:12;;;;;;;;;;;8.00;46.70;;;;;;5032862;28;19928;-68
2023/04/04 09:06:39;;;;;;;;;;;8.00;46.10;;;;;;5030651;28;20565;-69
2023/04/04 09:09:07;;;;;;;;;;;8.10;47.30;;;;;;5026555;28;20572;-68
2023/04/04 09:11:35;;;;;;;;;;;8.10;46.40;;;;;;5034843;28;19928;-69
2023/04/04 09:14:03;;;;;;;;;;;8.20;46.20;;;;;;5035654;28;19933;-69
2023/04/04 09:16:30;;;;;;;;;;;8.40;45.60;;;;;;5030663;28;19929;-69
2023/04/04 09:18:57;;;;;;;;;;;8.40;46.00;;;;;;5034723;28;19931;-68
2023/04/04 09:21:25;;;;;;;;;;;8.50;45.80;;;;;;5029640;28;19943;-68
2023/04/04 09:23:58;;;;;;;;;;;8.50;45.60;;;;;;5032246;28;20008;-69
2023/04/04 09:26:26;;;;;;;;;;;8.60;44.80;;;;;;5030946;28;19928;-67
2023/04/04 09:28:53;;;;;;;;;;;8.70;45.20;;;;;;5035927;28;20735;-69
2023/04/04 09:31:20;;;;;;;;;;;8.90;45.00;;;;;;5031455;28;19944;-67
2023/04/04 09:33:48;;;;;;;;;;;8.90;44.20;;;;;;5030364;28;19929;-67
2023/04/04 09:36:16;;;;;;;;;;;9.00;44.30;;;;;;5030268;28;19929;-67
2023/04/04 09:38:44;;;;;;;;;;;9.10;44.30;;;;;;5034137;28;19933;-69
2023/04/04 09:41:13;;;;;;;;;;;9.10;44.40;;;;;;5031003;28;19921;-70
2023/04/04 09:43:44;;;;;;;;;;;9.10;42.60;;;;;;5028967;28;19960;-68
2023/04/04 09:46:10;;;;;;;;;;;9.10;42.90;;;;;;4998368;28;20618;-69
2023/04/04 09:48:37;;;;;;;;;;;9.10;43.00;;;;;;5032289;28;20371;-68
2023/04/04 09:51:05;;;;;;;;;;;9.10;43.20;;;;;;5026235;28;19937;-69
2023/04/04 09:53:34;;;;;;;;;;;9.10;43.00;;;;;;5024363;28;19964;-69
2023/04/04 09:56:01;;;;;;;;;;;9.20;43.00;;;;;;5032176;28;19955;-68
2023/04/04 09:58:30;;;;;;;;;;;9.20;42.30;;;;;;5033587;28;19936;-69
2023/04/04 10:01:00;;;;;;;;;;;9.30;42.00;;;;;;5032600;28;19928;-69
2023/04/04 10:03:27;;;;;;;;;;;9.30;41.10;;;;;;5027572;28;19964;-68
2023/04/04 10:05:58;;;;;;;;;;;9.30;41.20;;;;;;5030619;28;19920;-69
2023/04/04 10:08:26;;;;;;;;;;;9.40;42.10;;;;;;5027157;28;19924;-68
2023/04/04 10:10:56;;;;;;;;;;;9.50;41.80;;;;;;5016373;28;19940;-69
2023/04/04 10:13:23;;;;;;;;;;;9.60;41.60;;;;;;5029560;28;19925;-69
2023/04/04 10:15:52;;;;;;;;;;;9.60;41.10;;;;;;5028850;28;19929;-68
2023/04/04 10:18:20;;;;;;;;;;;9.70;41.40;;;;;;5032287;28;20013;-69
2023/04/04 10:20:49;;;;;;;;;;;9.90;41.80;;;;;;5033236;28;19956;-68
2023/04/04 10:23:16;;;;;;;;;;;9.90;41.40;;;;;;5033553;28;19963;-69
2023/04/04 10:25:43;;;;;;;;;;;10.00;41.70;;;;;;5014500;28;19979;-69
2023/04/04 10:28:10;;;;;;;;;;;10.10;41.80;;;;;;5029018;28;19929;-69
2023/04/04 10:30:39;;;;;;;;;;;10.10;40.30;;;;;;5030431;28;19963;-69
2023/04/04 10:33:07;;;;;;;;;;;10.20;40.70;;;;;;5030726;28;20376;-69
2023/04/04 10:35:34;;;;;;;;;;;10.30;41.30;;;;;;5027256;28;19930;-69
2023/04/04 10:38:04;;;;;;;;;;;10.50;41.60;;;;;;5029996;28;19921;-68
2023/04/04 10:40:33;;;;;;;;;;;10.50;41.60;;;;;;5036841;28;19925;-69
2023/04/04 10:43:02;;;;;;;;;;;10.60;41.00;;;;;;5037404;28;19928;-69
2023/04/04 10:45:30;;;;;;;;;;;10.60;40.10;;;;;;5037098;28;20012;-68
2023/04/04 10:47:58;;;;;;;;;;;10.70;40.20;;;;;;5031652;28;19929;-69
2023/04/04 10:50:25;;;;;;;;;;;10.70;40.60;;;;;;5037947;28;19971;-69
2023/04/04 10:52:52;;;;;;;;;;;10.80;39.60;;;;;;5025973;28;19960;-71
2023/04/04 10:55:20;;;;;;;;;;;10.90;39.90;;;;;;5036103;28;19920;-67
2023/04/04 10:57:51;;;;;;;;;;;10.90;40.40;;;;;;5038068;28;20122;-69
2023/04/04 11:00:19;;;;;;;;;;;11.00;40.10;;;;;;5036626;28;19920;-66
2023/04/04 11:02:46;;;;;;;;;;;11.10;40.00;;;;;;5031300;28;19921;-68
2023/04/04 11:05:17;;;;;;;;;;;11.10;39.60;;;;;;5025569;28;19925;-69
2023/04/04 11:07:45;;;;;;;;;;;11.10;39.60;;;;;;5032896;28;19927;-70
2023/04/04 11:10:15;;;;;;;;;;;11.10;40.20;;;;;;5033782;28;19925;-68
2023/04/04 11:12:45;;;;;;;;;;;11.20;39.70;;;;;;5034474;28;19921;-69
2023/04/04 11:15:13;;;;;;;;;;;11.30;40.90;;;;;;5032665;28;19929;-68
2023/04/04 11:18:03;;;;;;;;;;;11.30;40.30;;;;;;5020533;28;19932;-69
2023/04/04 11:20:32;;;;;;;;;;;11.30;40.20;;;;;;5036789;28;19924;-70
2023/04/04 11:23:03;;;;;;;;;;;11.20;40.00;;;;;;5027918;28;19925;-69
2023/04/04 11:25:34;;;;;;;;;;;11.20;39.50;;;;;;5027746;28;19935;-69
2023/04/04 11:28:13;;;;;;;;;;;11.20;40.20;;;;;;5033937;28;19920;-70
2023/04/04 11:30:47;;;;;;;;;;;11.20;39.30;;;;;;5037139;28;19949;-70
2023/04/04 11:33:14;;;;;;;;;;;11.20;39.80;;;;;;5036983;28;20020;-69
2023/04/04 11:35:41;;;;;;;;;;;11.20;40.00;;;;;;5032583;28;19967;-70
2023/04/04 11:38:17;;;;;;;;;;;11.30;39.30;;;;;;5034106;28;19928;-69
2023/04/04 11:40:53;;;;;;;;;;;11.20;39.80;;;;;;5036230;28;20006;-69
2023/04/04 11:43:21;;;;;;;;;;;11.00;40.10;;;;;;5041873;28;19924;-70
2023/04/04 11:45:47;;;;;;;;;;;11.10;40.10;;;;;;5039220;28;19985;-68
2023/04/04 11:48:15;;;;;;;;;;;11.00;39.90;;;;;;5038543;28;20431;-69
2023/04/04 11:50:43;;;;;;;;;;;11.00;40.00;;;;;;5039919;28;20030;-69
2023/04/04 11:53:10;;;;;;;;;;;11.10;40.80;;;;;;5040000;28;19933;-70
2023/04/04 11:55:41;;;;;;;;;;;11.10;39.60;;;;;;5039346;28;19920;-70
2023/04/04 11:58:09;;;;;;;;;;;11.10;39.40;;;;;;5035993;28;19929;-69
2023/04/04 12:00:38;;;;;;;;;;;11.10;40.60;;;;;;5039198;28;19921;-70
2023/04/04 12:03:05;;;;;;;;;;;11.00;39.40;;;;;;5040891;28;19933;-69
2023/04/04 12:05:32;;;;;;;;;;;11.00;39.60;;;;;;5038746;28;19928;-69
2023/04/04 12:08:01;;;;;;;;;;;10.80;39.40;;;;;;5041837;28;19924;-69
2023/04/04 12:10:28;;;;;;;;;;;10.80;40.90;;;;;;5041954;28;20327;-69
2023/04/04 12:12:56;;;;;;;;;;;10.80;39.40;;;;;;5040671;28;20011;-69
2023/04/04 12:15:23;;;;;;;;;;;10.80;39.30;;;;;;5038552;28;19956;-69
2023/04/04 12:17:51;;;;;;;;;;;10.90;39.40;;;;;;5039811;28;19936;-70
2023/04/04 12:20:21;;;;;;;;;;;10.90;40.50;;;;;;5040614;28;19927;-71
2023/04/04 12:22:48;;;;;;;;;;;10.90;40.80;;;;;;5038793;28;19921;-72
2023/04/04 12:25:15;;;;;;;;;;;11.00;40.40;;;;;;5038644;28;19921;-70
2023/04/04 12:27:42;;;;;;;;;;;10.90;40.00;;;;;;5039840;28;19983;-70
2023/04/04 12:30:14;;;;;;;;;;;11.00;41.10;;;;;;5038926;28;19924;-69
2023/04/04 12:32:41;;;;;;;;;;;10.90;40.40;;;;;;5037923;28;19925;-69
2023/04/04 12:35:10;;;;;;;;;;;10.80;41.00;;;;;;5038696;28;19937;-69
2023/04/04 12:37:36;;;;;;;;;;;10.90;40.70;;;;;;5039664;28;19924;-70
2023/04/04 12:40:04;;;;;;;;;;;10.90;40.20;;;;;;5036374;28;19928;-68
2023/04/04 12:42:31;;;;;;;;;;;11.00;40.60;;;;;;5039848;28;19921;-70
2023/04/04 12:44:58;;;;;;;;;;;11.00;41.20;;;;;;5039885;28;20046;-70
2023/04/04 12:47:27;;;;;;;;;;;11.00;41.30;;;;;;5033545;28;19935;-69
2023/04/04 12:49:54;;;;;;;;;;;10.90;40.60;;;;;;5036763;28;19925;-68
2023/04/04 12:52:23;;;;;;;;;;;10.80;40.20;;;;;;5037881;28;19928;-70
2023/04/04 12:54:51;;;;;;;;;;;10.80;41.20;;;;;;5038010;28;19959;-68
2023/04/04 12:57:18;;;;;;;;;;;10.70;40.00;;;;;;5036827;28;19921;-70
2023/04/04 12:59:46;;;;;;;;;;;10.60;39.90;;;;;;5040031;28;19921;-69
2023/04/04 13:02:35;;;;;;;;;;;10.60;40.60;;;;;;5039464;28;19956;-68
2023/04/04 13:05:02;;;;;;;;;;;10.60;40.40;;;;;;5036319;28;19933;-69
2023/04/04 13:07:32;;;;;;;;;;;10.70;40.50;;;;;;5039163;28;20422;-69
2023/04/04 13:10:00;;;;;;;;;;;10.70;41.10;;;;;;5040780;28;19927;-70
2023/04/04 13:12:26;;;;;;;;;;;10.60;40.20;;;;;;5040037;28;20007;-69
2023/04/04 13:15:00;;;;;;;;;;;10.60;40.40;;;;;;5038990;28;19925;-69
2023/04/04 13:17:38;;;;;;;;;;;10.50;40.90;;;;;;5038783;28;20299;-69
2023/04/04 13:20:05;;;;;;;;;;;10.50;41.40;;;;;;5039725;28;19928;-70
2023/04/04 13:22:35;;;;;;;;;;;10.50;41.60;;;;;;5038425;28;19986;-70
2023/04/04 13:25:02;;;;;;;;;;;10.40;41.20;;;;;;5036971;28;20004;-68
2023/04/04 13:27:29;;;;;;;;;;;10.30;41.60;;;;;;5039500;28;20364;-69
2023/04/04 13:29:55;;;;;;;;;;;10.30;41.80;;;;;;5038516;28;19920;-70
2023/04/04 13:32:22;;;;;;;;;;;10.20;42.10;;;;;;5039133;28;19944;-70
2023/04/04 13:34:49;;;;;;;;;;;10.20;41.90;;;;;;5035259;28;20475;-69
2023/04/04 13:37:15;;;;;;;;;;;10.20;41.70;;;;;;5038039;28;19920;-70
2023/04/04 13:39:44;;;;;;;;;;;10.20;42.10;;;;;;5038613;28;19931;-71
2023/04/04 13:42:10;;;;;;;;;;;10.10;42.30;;;;;;5037644;28;19921;-70
2023/04/04 13:44:37;;;;;;;;;;;10.10;42.50;;;;;;5038565;28;19932;-69
2023/04/04 13:47:04;;;;;;;;;;;10.00;42.90;;;;;;5033459;28;20280;-69
2023/04/04 13:49:31;;;;;;;;;;;10.00;43.10;;;;;;5038758;28;19925;-70
2023/04/04 13:51:57;;;;;;;;;;;10.00;43.20;;;;;;5036755;28;19974;-70
2023/04/04 13:54:24;;;;;;;;;;;10.00;44.20;;;;;;5036927;28;19960;-69
2023/04/04 13:56:52;;;;;;;;;;;10.00;43.40;;;;;;5037774;28;19927;-69
2023/04/04 13:59:19;;;;;;;;;;;10.00;43.40;;;;;;5037903;28;20043;-70
2023/04/04 14:01:46;;;;;;;;;;;9.90;43.30;;;;;;5037758;28;19925;-69
2023/04/04 14:04:13;;;;;;;;;;;9.90;43.00;;;;;;5039194;28;19925;-70
2023/04/04 14:06:39;;;;;;;;;;;9.90;43.30;;;;;;5038615;28;20601;-70
2023/04/04 14:09:06;;;;;;;;;;;9.80;43.50;;;;;;5038327;28;19921;-70
2023/04/04 14:11:33;;;;;;;;;;;9.70;43.80;;;;;;5039615;28;20273;-69
2023/04/04 14:14:02;;;;;;;;;;;9.70;43.60;;;;;;5037868;28;19925;-70
2023/04/04 14:16:29;;;;;;;;;;;9.60;43.90;;;;;;5036415;28;19928;-70
2023/04/04 14:18:56;;;;;;;;;;;9.70;44.60;;;;;;5034932;28;19920;-69
2023/04/04 14:21:24;;;;;;;;;;;9.70;43.80;;;;;;5036895;28;20613;-69
2023/04/04 14:23:50;;;;;;;;;;;9.70;44.00;;;;;;5035888;28;19931;-69
2023/04/04 14:26:17;;;;;;;;;;;9.80;44.70;;;;;;5035583;28;19959;-70
2023/04/04 14:28:44;;;;;;;;;;;9.70;44.00;;;;;;5039539;28;19928;-69
2023/04/04 14:31:12;;;;;;;;;;;9.70;43.80;;;;;;5037294;28;19929;-68